createdAt,value
2019-02-19T00:00:07.553Z,6.17
2019-02-19T00:02:43.020Z,6.83
2019-02-19T00:05:12.571Z,4.03
2019-02-19T00:07:45.942Z,4.67
2019-02-19T00:10:15.849Z,5.83
2019-02-19T00:12:46.864Z,4.80
2019-02-19T00:15:16.468Z,4.80
2019-02-19T00:17:50.881Z,5.87
2019-02-19T00:20:20.741Z,3.83
2019-02-19T00:22:52.150Z,3.67
2019-02-19T00:25:21.781Z,4.13
2019-02-19T00:27:55.665Z,7.73
2019-02-19T00:30:26.446Z,6.30
2019-02-19T00:32:58.935Z,5.97
2019-02-19T00:35:28.477Z,3.27
2019-02-19T00:38:06.385Z,5.30
2019-02-19T00:40:35.613Z,6.03
2019-02-19T00:43:08.576Z,6.13
2019-02-19T00:45:38.507Z,9.57
2019-02-19T00:48:08.803Z,3.70
2019-02-19T00:50:38.375Z,6.80
2019-02-19T00:53:12.396Z,6.43
2019-02-19T00:55:41.920Z,8.07
2019-02-19T00:58:18.006Z,6.77
2019-02-19T01:00:47.805Z,5.73
2019-02-19T01:03:17.449Z,5.07
2019-02-19T01:05:47.065Z,8.83
2019-02-19T01:08:22.101Z,7.87
2019-02-19T01:10:51.715Z,9.03
2019-02-19T01:13:25.619Z,8.33
2019-02-19T01:15:56.741Z,8.80
2019-02-19T01:18:29.280Z,6.63
2019-02-19T01:20:59.584Z,7.77
2019-02-19T01:23:30.998Z,8.00
2019-02-19T01:26:00.534Z,7.57
2019-02-19T01:28:38.663Z,7.63
2019-02-19T01:31:08.492Z,11.57
2019-02-19T01:33:38.393Z,8.57
2019-02-19T01:36:08.045Z,8.77
2019-02-19T01:38:40.693Z,10.20
2019-02-19T01:41:09.570Z,11.60
2019-02-19T01:43:44.032Z,8.93
2019-02-19T01:46:13.842Z,10.87
2019-02-19T01:48:44.043Z,9.10
2019-02-19T01:51:13.946Z,10.73
2019-02-19T01:53:46.195Z,14.37
2019-02-19T01:56:15.748Z,10.97
2019-02-19T01:58:52.495Z,12.20
2019-02-19T02:01:22.301Z,14.53
2019-02-19T02:03:53.173Z,11.93
2019-02-19T02:06:22.798Z,13.00
2019-02-19T02:08:56.629Z,12.63
2019-02-19T02:11:25.508Z,13.87
2019-02-19T02:13:57.591Z,16.97
2019-02-19T02:16:27.413Z,19.30
2019-02-19T02:19:03.073Z,16.70
2019-02-19T02:21:35.381Z,14.40
2019-02-19T02:24:09.658Z,19.57
2019-02-19T02:26:39.478Z,17.00
2019-02-19T02:29:15.600Z,16.30
2019-02-19T02:31:45.400Z,15.07
2019-02-19T02:34:14.969Z,19.13
2019-02-19T02:36:44.576Z,22.27
2019-02-19T02:39:15.158Z,18.77
2019-02-19T02:41:44.718Z,19.83
2019-02-19T02:44:20.980Z,22.73
2019-02-19T02:46:50.773Z,25.73
2019-02-19T02:49:20.332Z,27.37
2019-02-19T02:51:49.238Z,23.83
2019-02-19T02:54:21.725Z,24.87
2019-02-19T02:56:51.274Z,29.07
2019-02-19T02:59:28.698Z,24.67
2019-02-19T03:01:58.501Z,25.80
2019-02-19T03:04:27.526Z,29.17
2019-02-19T03:07:03.989Z,35.37
2019-02-19T03:09:35.323Z,50.37
2019-02-19T03:12:04.851Z,50.20
2019-02-19T03:14:34.575Z,57.23
2019-02-19T03:17:04.376Z,61.50
2019-02-19T03:19:36.997Z,57.70
2019-02-19T03:22:06.601Z,59.53
2019-02-19T03:24:39.591Z,66.20
2019-02-19T03:27:09.134Z,70.00
2019-02-19T03:29:41.736Z,67.50
2019-02-19T03:38:37.951Z,70.43
2019-02-19T03:41:07.833Z,73.63
2019-02-19T03:43:37.887Z,77.37
2019-02-19T03:46:11.938Z,75.53
2019-02-19T03:48:38.665Z,80.50
2019-02-19T03:51:08.496Z,62.57
2019-02-19T03:53:38.071Z,62.80
2019-02-19T03:56:07.640Z,62.17
2019-02-19T03:58:37.001Z,62.17
2019-02-19T04:01:06.611Z,66.97
2019-02-19T04:03:36.166Z,55.20
2019-02-19T04:06:06.007Z,52.43
2019-02-19T04:08:34.934Z,57.00
2019-02-19T04:11:07.670Z,50.83
2019-02-19T04:13:37.502Z,58.33
2019-02-19T04:16:10.205Z,58.83
2019-02-19T04:18:39.753Z,53.50
2019-02-19T04:21:12.653Z,57.10
2019-02-19T04:23:41.593Z,52.10
2019-02-19T04:26:14.097Z,53.67
2019-02-19T04:28:43.278Z,57.40
2019-02-19T04:31:17.266Z,52.30
2019-02-19T04:33:46.809Z,57.87
2019-02-19T04:36:18.457Z,49.63
2019-02-19T04:38:47.393Z,60.60
2019-02-19T04:41:20.998Z,55.63
2019-02-19T04:43:50.601Z,50.47
2019-02-19T04:46:31.556Z,55.03
2019-02-19T04:48:56.522Z,59.67
2019-02-19T04:51:25.470Z,56.87
2019-02-19T04:53:55.026Z,58.10
2019-02-19T04:56:28.679Z,57.17
2019-02-19T04:58:58.221Z,60.87
2019-02-19T05:01:36.409Z,56.43
2019-02-19T05:04:05.584Z,49.73
2019-02-19T05:06:35.979Z,58.43
2019-02-19T05:09:05.932Z,51.00
2019-02-19T05:11:37.682Z,57.77
2019-02-19T05:14:06.570Z,50.13
2019-02-19T05:16:42.258Z,48.60
2019-02-19T05:19:11.809Z,48.70
2019-02-19T05:21:44.534Z,46.80
2019-02-19T05:24:14.482Z,48.57
2019-02-19T05:26:46.111Z,48.43
2019-02-19T05:29:15.671Z,47.57
2019-02-19T05:31:48.918Z,45.23
2019-02-19T05:34:18.466Z,43.43
2019-02-19T05:36:51.533Z,39.67
2019-02-19T05:39:21.111Z,42.07
2019-02-19T05:41:55.854Z,43.23
2019-02-19T05:44:25.821Z,43.03
2019-02-19T05:46:59.293Z,41.77
2019-02-19T05:49:28.885Z,43.23
2019-02-19T05:52:00.835Z,42.70
2019-02-19T05:54:29.725Z,40.47
2019-02-19T05:57:04.155Z,39.97
2019-02-19T05:59:36.455Z,36.43
2019-02-19T06:02:09.416Z,43.17
2019-02-19T06:04:39.036Z,40.53
2019-02-19T06:07:11.065Z,41.73
2019-02-19T06:09:39.984Z,44.77
2019-02-19T06:12:14.030Z,38.73
2019-02-19T06:14:42.940Z,39.47
2019-02-19T06:17:17.764Z,45.03
2019-02-19T06:19:47.335Z,38.33
2019-02-19T06:22:19.549Z,42.50
2019-02-19T06:24:49.129Z,39.43
2019-02-19T06:27:22.009Z,39.70
2019-02-19T06:29:51.857Z,36.17
2019-02-19T06:32:24.386Z,38.03
2019-02-19T06:34:53.973Z,40.80
2019-02-19T06:37:25.410Z,37.83
2019-02-19T06:39:54.452Z,37.87
2019-02-19T06:42:28.402Z,40.03
2019-02-19T06:44:58.321Z,38.53
2019-02-19T06:47:32.255Z,40.70
2019-02-19T06:50:01.931Z,38.87
2019-02-19T06:52:34.857Z,40.97
2019-02-19T06:55:04.610Z,39.87
2019-02-19T06:57:37.650Z,42.90
2019-02-19T07:00:07.467Z,41.63
2019-02-19T07:02:51.616Z,40.67
2019-02-19T07:05:23.303Z,39.33
2019-02-19T07:07:52.903Z,35.70
2019-02-19T07:10:22.525Z,34.07
2019-02-19T07:12:52.255Z,40.80
2019-02-19T07:15:21.901Z,34.70
2019-02-19T07:17:51.810Z,34.30
2019-02-19T07:20:20.707Z,33.40
2019-02-19T07:22:49.642Z,33.23
2019-02-19T07:25:19.489Z,36.80
2019-02-19T07:27:54.102Z,35.30
2019-02-19T07:30:23.618Z,35.07
2019-02-19T07:32:57.254Z,34.73
2019-02-19T07:35:26.880Z,34.10
2019-02-19T07:37:59.850Z,33.40
2019-02-19T07:40:29.441Z,35.67
2019-02-19T07:43:05.132Z,38.90
2019-02-19T07:45:34.986Z,36.60
2019-02-19T07:48:14.348Z,35.67
2019-02-19T07:50:44.363Z,40.90
2019-02-19T07:53:13.907Z,35.37
2019-02-19T07:55:42.838Z,40.27
2019-02-19T07:58:15.105Z,40.80
2019-02-19T08:00:44.712Z,40.10
2019-02-19T08:03:18.191Z,40.97
2019-02-19T08:05:47.527Z,35.33
2019-02-19T08:08:21.466Z,40.93
2019-02-19T08:10:51.048Z,37.47
2019-02-19T08:13:26.472Z,40.73
2019-02-19T08:15:56.042Z,37.83
2019-02-19T08:18:25.651Z,37.03
2019-02-19T08:20:55.690Z,42.63
2019-02-19T08:23:35.360Z,49.33
2019-02-19T08:26:05.275Z,41.27
2019-02-19T08:28:34.858Z,41.93
2019-02-19T08:31:04.443Z,42.03
2019-02-19T08:33:34.980Z,39.97
2019-02-19T08:36:03.914Z,42.60
2019-02-19T08:38:36.647Z,40.07
2019-02-19T08:41:06.255Z,36.67
2019-02-19T08:43:40.057Z,36.23
2019-02-19T08:46:09.263Z,38.13
2019-02-19T08:48:44.314Z,35.90
2019-02-19T08:51:13.942Z,39.93
2019-02-19T08:53:47.814Z,34.53
2019-02-19T08:56:16.717Z,38.50
2019-02-19T08:58:46.788Z,31.30
2019-02-19T09:01:16.367Z,26.13
2019-02-19T09:03:52.662Z,29.00
2019-02-19T09:06:22.542Z,29.47
2019-02-19T09:08:55.169Z,30.03
2019-02-19T09:11:24.144Z,30.13
2019-02-19T09:13:55.300Z,27.57
2019-02-19T09:16:24.845Z,24.17
2019-02-19T09:18:59.037Z,20.43
2019-02-19T09:21:28.759Z,24.77
2019-02-19T09:24:09.293Z,24.93
2019-02-19T09:26:35.538Z,22.27
2019-02-19T09:29:10.347Z,20.93
2019-02-19T09:31:40.215Z,21.57
2019-02-19T09:34:09.810Z,18.50
2019-02-19T09:36:39.422Z,16.97
2019-02-19T09:39:16.846Z,16.17
2019-02-19T09:41:46.477Z,16.90
2019-02-19T09:44:16.102Z,14.80
2019-02-19T09:46:46.203Z,20.60
2019-02-19T09:49:20.531Z,16.30
2019-02-19T09:51:49.519Z,14.47
2019-02-19T09:54:22.011Z,19.37
2019-02-19T09:56:51.610Z,12.30
2019-02-19T09:59:24.595Z,12.93
2019-02-19T10:01:54.173Z,12.67
2019-02-19T10:04:26.567Z,9.47
2019-02-19T10:06:56.486Z,14.97
2019-02-19T10:09:27.897Z,15.30
2019-02-19T10:11:58.024Z,13.67
2019-02-19T10:14:35.044Z,10.77
2019-02-19T10:17:03.947Z,11.20
2019-02-19T10:19:36.579Z,10.67
2019-02-19T10:22:06.645Z,14.57
2019-02-19T10:24:39.065Z,14.77
2019-02-19T10:27:08.676Z,8.77
2019-02-19T10:29:41.650Z,12.00
2019-02-19T10:32:10.556Z,8.83
2019-02-19T10:34:42.748Z,12.33
2019-02-19T10:37:12.050Z,12.63
2019-02-19T10:39:47.028Z,12.93
2019-02-19T10:42:15.964Z,10.93
2019-02-19T10:44:48.903Z,11.87
2019-02-19T10:47:18.489Z,14.67
2019-02-19T10:49:53.541Z,8.87
2019-02-19T10:52:23.390Z,8.90
2019-02-19T10:54:56.554Z,10.60
2019-02-19T10:57:25.512Z,13.27
2019-02-19T10:59:57.888Z,12.77
2019-02-19T11:02:27.004Z,8.73
2019-02-19T11:05:03.044Z,13.17
2019-02-19T11:07:32.050Z,12.80
2019-02-19T11:10:05.071Z,7.67
2019-02-19T11:12:35.200Z,9.93
2019-02-19T11:15:08.443Z,9.43
2019-02-19T11:17:37.645Z,8.30
2019-02-19T11:20:12.455Z,7.30
2019-02-19T11:22:41.407Z,9.97
2019-02-19T11:25:13.663Z,6.40
2019-02-19T11:27:42.602Z,7.23
2019-02-19T11:30:16.228Z,5.20
2019-02-19T11:32:46.105Z,6.93
2019-02-19T11:35:21.825Z,5.03
2019-02-19T11:37:51.941Z,8.33
2019-02-19T11:40:21.973Z,12.10
2019-02-19T11:42:51.621Z,7.93
2019-02-19T11:45:24.391Z,8.40
2019-02-19T11:47:54.074Z,3.63
2019-02-19T11:50:29.844Z,8.77
2019-02-19T11:52:59.436Z,5.87
2019-02-19T11:55:33.439Z,5.13
2019-02-19T11:58:03.048Z,5.13
2019-02-19T12:00:37.870Z,6.60
2019-02-19T12:03:07.371Z,4.93
2019-02-19T12:05:38.084Z,9.37
2019-02-19T12:08:07.746Z,6.90
2019-02-19T12:10:38.961Z,5.27
2019-02-19T12:13:08.594Z,10.10
2019-02-19T12:15:42.492Z,7.77
2019-02-19T12:18:12.552Z,5.70
2019-02-19T12:20:43.158Z,7.53
2019-02-19T12:23:12.750Z,9.53
2019-02-19T12:25:48.870Z,9.10
2019-02-19T12:28:17.982Z,6.13
2019-02-19T12:30:50.757Z,10.13
2019-02-19T12:33:20.963Z,5.33
2019-02-19T12:35:52.168Z,8.03
2019-02-19T12:38:21.817Z,6.60
2019-02-19T12:40:57.681Z,7.17
2019-02-19T12:43:27.323Z,5.50
2019-02-19T12:46:06.587Z,9.03
2019-02-19T12:48:37.828Z,12.87
2019-02-19T12:51:07.946Z,8.47
2019-02-19T12:53:36.863Z,4.50
2019-02-19T12:56:08.562Z,5.87
2019-02-19T12:58:38.592Z,6.20
2019-02-19T13:01:08.402Z,5.43
2019-02-19T13:03:38.574Z,10.40
2019-02-19T13:06:13.801Z,7.43
2019-02-19T13:08:43.524Z,4.70
2019-02-19T13:11:16.140Z,4.33
2019-02-19T13:13:45.777Z,4.77
2019-02-19T13:16:17.576Z,9.20
2019-02-19T13:18:47.489Z,6.07
2019-02-19T13:21:20.603Z,6.70
2019-02-19T13:23:50.338Z,6.40
2019-02-19T13:26:24.044Z,6.60
2019-02-19T13:28:54.103Z,9.23
2019-02-19T13:31:26.960Z,7.57
2019-02-19T13:33:56.750Z,6.57
2019-02-19T13:36:30.378Z,12.13
2019-02-19T13:39:00.272Z,5.93
2019-02-19T13:41:36.982Z,11.90
2019-02-19T13:44:05.735Z,6.13
2019-02-19T13:46:38.928Z,6.77
2019-02-19T13:49:12.235Z,5.57
2019-02-19T13:51:40.268Z,5.03
2019-02-19T13:54:20.461Z,9.53
2019-02-19T13:59:18.298Z,7.37
2019-02-19T14:01:47.920Z,5.57
2019-02-19T14:04:17.945Z,5.73
2019-02-19T14:06:53.367Z,9.90
2019-02-19T14:09:22.941Z,4.93
2019-02-19T14:11:56.617Z,7.07
2019-02-19T14:14:34.101Z,7.67
2019-02-19T14:17:08.277Z,7.47
2019-02-19T14:19:46.317Z,7.70
2019-02-19T14:22:34.045Z,6.43
2019-02-19T14:25:31.725Z,5.03
2019-02-19T14:28:22.559Z,5.03
2019-02-19T14:31:17.963Z,6.87
2019-02-19T14:34:05.035Z,7.83
2019-02-19T14:36:54.702Z,5.33
2019-02-19T14:39:41.923Z,4.77
2019-02-19T14:42:48.947Z,9.33
2019-02-19T14:45:37.218Z,8.57
2019-02-19T14:48:35.917Z,12.07
2019-02-19T14:51:24.939Z,10.97
2019-02-19T14:54:24.898Z,5.23
2019-02-19T14:57:03.114Z,9.33
2019-02-19T14:59:49.714Z,6.50
2019-02-19T15:02:34.515Z,5.97
2019-02-19T15:05:35.065Z,9.53
2019-02-19T15:08:15.957Z,5.97
2019-02-19T15:11:05.327Z,6.70
2019-02-19T15:13:48.166Z,9.23
2019-02-19T15:16:36.735Z,7.27
2019-02-19T15:19:20.133Z,7.57
2019-02-19T15:22:11.121Z,7.97
2019-02-19T15:24:51.173Z,5.87
2019-02-19T15:27:55.381Z,5.87
2019-02-19T15:30:43.347Z,8.47
2019-02-19T15:33:38.388Z,8.07
2019-02-19T15:36:25.920Z,7.40
2019-02-19T15:39:10.550Z,6.17
2019-02-19T15:42:05.466Z,6.60
2019-02-19T15:44:50.422Z,10.17
2019-02-19T15:47:42.363Z,7.80
2019-02-19T15:50:44.267Z,8.00
2019-02-19T15:53:26.466Z,5.33
2019-02-19T15:56:17.552Z,9.20
2019-02-19T15:59:10.253Z,9.70
2019-02-19T16:02:04.883Z,7.63
2019-02-19T16:04:53.229Z,7.87
2019-02-19T16:07:49.854Z,13.03
2019-02-19T16:10:37.433Z,10.20
2019-02-19T16:13:15.448Z,7.20
2019-02-19T16:16:02.028Z,9.63
2019-02-19T16:19:03.652Z,7.57
2019-02-19T16:21:50.598Z,9.03
2019-02-19T16:24:35.885Z,7.10
2019-02-19T16:27:29.343Z,6.20
2019-02-19T16:30:36.844Z,7.37
2019-02-19T16:33:26.741Z,6.07
2019-02-19T16:36:22.138Z,5.57
2019-02-19T16:39:18.959Z,9.57
2019-02-19T16:42:07.562Z,8.73
2019-02-19T16:44:52.041Z,5.87
2019-02-19T16:47:58.294Z,4.60
2019-02-19T16:50:37.497Z,5.90
2019-02-19T16:53:30.292Z,6.43
2019-02-19T16:56:23.089Z,9.73
2019-02-19T16:59:14.231Z,8.93
2019-02-19T17:02:11.683Z,10.60
2019-02-19T17:05:14.566Z,8.17
2019-02-19T17:08:06.441Z,10.63
2019-02-19T17:10:58.391Z,5.77
2019-02-19T17:13:45.344Z,9.93
2019-02-19T17:16:33.378Z,7.13
2019-02-19T17:19:17.188Z,8.70
2019-02-19T17:22:01.750Z,15.53
2019-02-19T17:25:08.665Z,9.13
2019-02-19T17:28:03.765Z,7.07
2019-02-19T17:30:44.790Z,8.40
2019-02-19T17:33:44.847Z,9.33
2019-02-19T17:36:47.857Z,7.93
2019-02-19T17:39:33.302Z,9.10
2019-02-19T17:42:21.192Z,8.53
2019-02-19T17:45:09.709Z,12.13
2019-02-19T17:48:19.201Z,14.40
2019-02-19T17:51:13.129Z,9.73
2019-02-19T17:54:03.679Z,10.83
2019-02-19T17:56:51.683Z,10.50
2019-02-19T17:59:37.153Z,12.73
2019-02-19T18:02:26.347Z,12.57
2019-02-19T18:05:12.475Z,13.80
2019-02-19T18:07:59.521Z,7.13
2019-02-19T18:10:47.341Z,5.93
2019-02-19T18:13:45.229Z,6.73
2019-02-19T18:16:32.794Z,8.90
2019-02-19T18:19:02.401Z,8.23
2019-02-19T18:21:35.222Z,9.77
2019-02-19T18:24:05.026Z,8.03
2019-02-19T18:26:44.821Z,7.43
2019-02-19T18:29:25.354Z,9.33
2019-02-19T18:31:54.283Z,10.63
2019-02-19T18:34:25.029Z,8.53
2019-02-19T18:36:54.644Z,10.47
2019-02-19T18:39:37.193Z,74.60
2019-02-19T18:42:06.802Z,19.97
2019-02-19T18:44:36.400Z,16.60
2019-02-19T18:47:06.275Z,12.83
2019-02-19T18:49:35.963Z,14.30
2019-02-19T18:52:05.577Z,14.47
2019-02-19T18:54:41.468Z,21.63
2019-02-19T18:57:10.392Z,13.30
2019-02-19T18:59:41.346Z,11.87
2019-02-19T19:02:13.923Z,17.30
2019-02-19T19:04:43.766Z,15.43
2019-02-19T19:07:13.422Z,19.43
2019-02-19T19:09:52.422Z,27.27
2019-02-19T19:12:21.313Z,30.50
2019-02-19T19:14:50.914Z,15.93
2019-02-19T19:17:20.861Z,26.07
2019-02-19T19:19:49.773Z,15.70
2019-02-19T19:22:18.886Z,19.13
2019-02-19T19:24:57.694Z,11.93
2019-02-19T19:27:27.380Z,14.47
2019-02-19T19:29:57.842Z,13.87
2019-02-19T19:32:27.450Z,14.03
2019-02-19T19:34:57.367Z,19.37
2019-02-19T19:37:27.525Z,18.40
2019-02-19T19:40:09.082Z,15.07
2019-02-19T19:42:38.405Z,17.43
2019-02-19T19:45:07.641Z,12.07
2019-02-19T19:47:37.250Z,14.20
2019-02-19T19:50:07.965Z,27.27
2019-02-19T19:52:37.979Z,25.20
2019-02-19T19:55:19.018Z,11.43
2019-02-19T19:57:49.195Z,11.27
2019-02-19T20:00:31.772Z,12.90
2019-02-19T20:03:01.944Z,14.77
2019-02-19T20:05:32.375Z,10.70
2019-02-19T20:08:01.612Z,11.80
2019-02-19T20:10:34.199Z,16.47
2019-02-19T20:13:04.293Z,13.17
2019-02-19T20:15:36.862Z,15.90
2019-02-19T20:18:05.859Z,17.53
2019-02-19T20:20:35.787Z,18.43
2019-02-19T20:23:05.969Z,13.47
2019-02-19T20:25:35.792Z,13.00
2019-02-19T20:28:04.682Z,14.13
2019-02-19T20:30:43.424Z,11.70
2019-02-19T20:33:13.008Z,18.10
2019-02-19T20:35:42.927Z,16.10
2019-02-19T20:38:12.863Z,13.43
2019-02-19T20:40:42.890Z,14.57
2019-02-19T20:43:12.518Z,19.60
2019-02-19T20:45:48.856Z,19.10
2019-02-19T20:48:18.621Z,18.93
2019-02-19T20:50:47.543Z,19.70
2019-02-19T20:53:16.535Z,16.00
2019-02-19T20:55:46.142Z,13.80
2019-02-19T20:58:17.777Z,16.60
2019-02-19T21:01:00.781Z,14.93
2019-02-19T21:03:34.400Z,15.83
2019-02-19T21:06:04.098Z,21.10
2019-02-19T21:08:33.724Z,14.50
2019-02-19T21:11:02.635Z,15.43
2019-02-19T21:13:33.140Z,15.70
2019-02-19T21:16:02.350Z,13.83
2019-02-19T21:18:31.246Z,13.77
2019-02-19T21:21:07.378Z,16.97
2019-02-19T21:23:36.570Z,12.33
2019-02-19T21:26:06.141Z,17.57
2019-02-19T21:28:36.372Z,15.83
2019-02-19T21:31:06.303Z,15.87
2019-02-19T21:33:36.166Z,17.57
2019-02-19T21:36:17.876Z,17.27
2019-02-19T21:38:47.720Z,13.20
2019-02-19T21:41:17.469Z,11.60
2019-02-19T21:43:47.093Z,11.27
2019-02-19T21:46:17.666Z,15.03
2019-02-19T21:48:48.353Z,11.10
2019-02-19T21:51:18.298Z,11.40
2019-02-19T21:53:47.490Z,12.13
2019-02-19T21:56:18.293Z,11.67
2019-02-19T21:58:47.244Z,10.47
2019-02-19T22:01:20.324Z,10.63
2019-02-19T22:03:49.943Z,12.03
2019-02-19T22:06:30.138Z,15.07
2019-02-19T22:08:59.711Z,14.83
2019-02-19T22:11:28.616Z,12.70
2019-02-19T22:13:58.538Z,12.70
2019-02-19T22:16:28.969Z,15.23
2019-02-19T22:18:58.629Z,8.60
2019-02-19T22:22:03.135Z,11.53
2019-02-19T22:24:36.329Z,10.43
2019-02-19T22:27:07.707Z,10.47
2019-02-19T22:29:37.390Z,12.23
2019-02-19T22:32:07.391Z,14.37
2019-02-19T22:34:43.897Z,12.33
2019-02-19T22:37:12.982Z,7.90
2019-02-19T22:39:41.939Z,11.03
2019-02-19T22:42:11.650Z,15.57
2019-02-19T22:44:44.349Z,11.43
2019-02-19T22:47:13.543Z,8.77
2019-02-19T22:49:52.344Z,10.13
2019-02-19T22:52:21.910Z,14.20
2019-02-19T22:55:19.278Z,18.63
2019-02-19T22:57:50.473Z,10.90
2019-02-19T23:00:41.187Z,19.70
2019-02-19T23:03:11.080Z,12.63
2019-02-19T23:05:40.712Z,10.83
2019-02-19T23:08:10.329Z,8.73
2019-02-19T23:10:40.154Z,9.37
2019-02-19T23:13:09.713Z,13.47
2019-02-19T23:15:38.629Z,10.97
2019-02-19T23:18:07.797Z,16.60
2019-02-19T23:20:37.351Z,32.30
2019-02-19T23:23:16.969Z,36.37
2019-02-19T23:25:46.513Z,16.93
2019-02-19T23:28:16.592Z,14.37
2019-02-19T23:30:48.882Z,23.63
2019-02-19T23:33:18.627Z,11.57
2019-02-19T23:35:55.368Z,13.33
2019-02-19T23:38:24.926Z,23.83
2019-02-19T23:40:53.828Z,21.70
2019-02-19T23:43:23.432Z,15.10
2019-02-19T23:45:52.971Z,12.83
2019-02-19T23:48:31.940Z,16.87
2019-02-19T23:51:00.824Z,21.43
2019-02-19T23:53:30.516Z,14.30
2019-02-19T23:56:00.440Z,16.93
2019-02-19T23:58:30.177Z,21.90
